Terminal Aerodrome Forecast
Issued by NWS Grand Junction, CO

Home | Current Version | Previous Version | Text Only | Print | Product List | Glossary On
Versions: 1 2 3 4 5 6 7 8 9 10 11 12 13 14 15 16 17 18 19 20 21 22 23 24
000
FTUS45 KGJT 292320
TAFGJT
TAF
KGJT 292320Z 3000/3024 00000KT P6SM VCSH OVC060
     FM300200 15007KT P6SM VCSH OVC070
     FM300500 12007KT P6SM OVC060
     FM301800 16004KT P6SM BKN060
     FM302100 29006KT P6SM VCTS BKN060CB=

USA.gov is the U.S. government's official web portal to all federal, state and local government web resources and services.